Time;durP1;ratioP1;P1;durP2;ratioP2;P2;SDS_P1;SDS_P2;PMS_P1;PMS_P2;Temp;Humidity;BMP_temperature;BMP_pressure;BME280_temperature;BME280_humidity;BME280_pressure;Samples;Min_cycle;Max_cycle;Signal;HPM_P1;HPM_P2
2021/09/20 00:09:41;;;;;;;6.73;6.13;;;16.00;99.90;;;;;;5937459;24;20488;-90
2021/09/20 00:12:08;;;;;;;6.83;6.30;;;16.00;99.90;;;;;;5956253;24;20409;-90
2021/09/20 00:14:34;;;;;;;7.17;6.47;;;16.00;99.90;;;;;;6087577;23;20465;-91
2021/09/20 00:17:02;;;;;;;6.87;6.27;;;16.00;99.90;;;;;;6129727;23;20384;-91
2021/09/20 00:19:29;;;;;;;7.07;6.47;;;16.00;99.90;;;;;;6140207;23;20406;-90
2021/09/20 00:21:56;;;;;;;7.30;6.60;;;16.10;99.90;;;;;;6150407;23;20467;-89
2021/09/20 00:24:23;;;;;;;7.27;6.70;;;16.00;99.90;;;;;;6153355;23;20451;-90
2021/09/20 00:26:51;;;;;;;7.43;6.77;;;16.00;99.90;;;;;;6145511;23;21105;-90
2021/09/20 00:29:18;;;;;;;7.40;6.70;;;16.00;99.90;;;;;;6149305;23;20388;-90
2021/09/20 00:31:44;;;;;;;7.13;6.53;;;16.00;99.90;;;;;;6150428;23;20408;-91
2021/09/20 00:34:11;;;;;;;7.00;6.33;;;16.00;99.90;;;;;;6140794;23;20435;-90
2021/09/20 00:36:38;;;;;;;7.60;6.90;;;16.00;99.90;;;;;;6131006;23;20404;-91
2021/09/20 00:39:05;;;;;;;6.97;6.37;;;16.00;99.90;;;;;;6134241;23;20415;-90
2021/09/20 00:41:31;;;;;;;7.10;6.27;;;16.00;99.90;;;;;;6133089;23;20412;-91
2021/09/20 00:44:00;;;;;;;6.73;6.10;;;16.00;99.90;;;;;;6133879;23;20759;-91
2021/09/20 00:46:26;;;;;;;7.90;7.20;;;15.90;99.90;;;;;;6131081;23;20506;-89
2021/09/20 00:48:53;;;;;;;7.20;6.50;;;15.90;99.90;;;;;;6134174;23;20412;-91
2021/09/20 00:51:20;;;;;;;8.07;7.37;;;15.90;99.90;;;;;;6130608;23;20411;-92
2021/09/20 00:53:46;;;;;;;6.77;6.23;;;15.90;99.90;;;;;;6129623;23;20434;-90
2021/09/20 00:56:14;;;;;;;7.47;6.87;;;15.90;99.90;;;;;;6129514;23;20723;-90
2021/09/20 00:58:41;;;;;;;7.93;7.20;;;15.90;99.90;;;;;;6129036;23;20419;-90
2021/09/20 01:01:09;;;;;;;6.80;6.20;;;15.90;99.90;;;;;;6128511;23;20415;-91
2021/09/20 01:03:36;;;;;;;7.20;6.60;;;15.90;99.90;;;;;;6132031;23;20434;-88
2021/09/20 01:06:02;;;;;;;6.70;6.07;;;15.90;99.90;;;;;;6147955;23;20520;-90
2021/09/20 01:08:29;;;;;;;7.90;6.77;;;15.90;99.90;;;;;;6154247;23;20427;-90
2021/09/20 01:10:56;;;;;;;7.17;6.50;;;15.90;99.90;;;;;;6149645;23;20811;-91
2021/09/20 01:13:23;;;;;;;6.97;6.27;;;15.90;99.90;;;;;;6153843;23;20428;-89
2021/09/20 01:15:52;;;;;;;7.37;6.83;;;15.90;99.90;;;;;;6139648;23;20442;-91
2021/09/20 01:18:20;;;;;;;7.10;6.50;;;15.90;99.90;;;;;;6131768;23;20423;-91
2021/09/20 01:20:47;;;;;;;7.10;6.50;;;15.80;99.90;;;;;;6131496;23;20407;-91
2021/09/20 01:23:15;;;;;;;7.73;7.03;;;15.80;99.90;;;;;;6133355;23;20435;-90
2021/09/20 01:25:42;;;;;;;6.87;6.27;;;15.80;99.90;;;;;;6130617;23;20442;-90
2021/09/20 01:28:10;;;;;;;7.00;6.40;;;15.80;99.90;;;;;;6128801;23;20423;-91
2021/09/20 01:30:36;;;;;;;7.13;6.53;;;15.80;99.90;;;;;;6129284;23;20418;-90
2021/09/20 01:33:03;;;;;;;6.70;6.10;;;15.80;99.90;;;;;;6128694;23;20412;-90
2021/09/20 01:35:31;;;;;;;7.87;6.43;;;15.80;99.90;;;;;;6128663;23;20729;-90
2021/09/20 01:37:57;;;;;;;7.87;7.17;;;15.80;99.90;;;;;;6128587;23;20419;-91
2021/09/20 01:40:27;;;;;;;7.17;6.50;;;15.80;99.90;;;;;;6129415;23;20414;-91
2021/09/20 01:42:53;;;;;;;7.67;7.07;;;15.80;99.90;;;;;;6130788;23;20475;-90
2021/09/20 01:45:20;;;;;;;6.90;6.20;;;15.80;99.90;;;;;;6144594;23;20411;-90
2021/09/20 01:47:48;;;;;;;7.77;7.03;;;15.80;99.90;;;;;;6131956;23;20452;-90
2021/09/20 01:50:15;;;;;;;8.53;7.17;;;15.80;99.90;;;;;;6128531;23;20411;-90
2021/09/20 01:52:42;;;;;;;7.10;6.40;;;15.70;99.90;;;;;;6127599;23;20443;-90
2021/09/20 01:55:10;;;;;;;8.03;7.23;;;15.70;99.90;;;;;;6127535;23;20435;-90
2021/09/20 01:57:39;;;;;;;7.40;6.70;;;15.70;99.90;;;;;;6128074;23;20794;-90
2021/09/20 02:00:09;;;;;;;8.67;6.93;;;15.60;99.90;;;;;;6127943;23;20419;-90
2021/09/20 02:02:35;;;;;;;8.23;7.53;;;15.60;99.90;;;;;;6127892;23;20412;-90
2021/09/20 02:05:02;;;;;;;6.97;6.37;;;15.70;99.90;;;;;;6140950;23;20515;-89
2021/09/20 02:07:29;;;;;;;6.50;6.00;;;15.60;99.90;;;;;;6152370;23;20431;-88
2021/09/20 02:09:56;;;;;;;7.07;6.37;;;15.60;99.90;;;;;;6130696;23;20412;-90
2021/09/20 02:12:22;;;;;;;7.53;6.70;;;15.60;99.90;;;;;;6128635;23;20399;-90
2021/09/20 02:14:50;;;;;;;7.70;7.10;;;15.70;99.90;;;;;;6128014;23;20973;-91
2021/09/20 02:17:17;;;;;;;7.23;6.57;;;15.70;99.90;;;;;;6131686;23;20400;-89
2021/09/20 02:19:44;;;;;;;8.10;7.40;;;15.70;99.90;;;;;;6131404;23;20736;-91
2021/09/20 02:22:11;;;;;;;8.53;7.20;;;15.70;99.90;;;;;;6152383;23;20490;-89
2021/09/20 02:24:37;;;;;;;7.37;6.77;;;15.70;99.90;;;;;;6142990;23;20793;-90
2021/09/20 02:27:04;;;;;;;7.87;7.17;;;15.70;99.90;;;;;;6130302;23;20980;-89
2021/09/20 02:29:31;;;;;;;7.20;6.60;;;15.70;99.90;;;;;;6137118;23;20411;-90
2021/09/20 02:31:59;;;;;;;9.20;8.30;;;15.70;99.90;;;;;;6136729;23;20411;-90
2021/09/20 02:34:26;;;;;;;8.73;7.90;;;15.60;99.90;;;;;;6139376;23;20416;-90
2021/09/20 02:36:54;;;;;;;7.93;7.17;;;15.60;99.90;;;;;;6128954;23;20408;-90
2021/09/20 02:39:21;;;;;;;8.50;7.43;;;15.50;99.90;;;;;;6127109;23;20742;-91
2021/09/20 02:41:49;;;;;;;8.17;7.37;;;15.60;99.90;;;;;;6130373;23;20404;-90
2021/09/20 02:44:15;;;;;;;8.27;7.53;;;15.50;99.90;;;;;;6132554;23;20532;-91
2021/09/20 02:46:42;;;;;;;8.43;7.63;;;15.60;99.90;;;;;;6129238;23;20447;-92
2021/09/20 02:49:10;;;;;;;8.20;7.50;;;15.50;99.90;;;;;;6130677;23;20423;-90
2021/09/20 02:51:37;;;;;;;9.47;7.30;;;15.50;99.90;;;;;;6129438;23;20396;-91
2021/09/20 02:54:04;;;;;;;8.40;7.70;;;15.50;99.90;;;;;;6127763;23;20958;-90
2021/09/20 02:56:31;;;;;;;8.10;7.33;;;15.40;99.90;;;;;;6128225;23;20411;-91
2021/09/20 02:58:57;;;;;;;8.80;7.30;;;15.40;99.90;;;;;;6128380;23;20403;-90
2021/09/20 03:01:24;;;;;;;7.67;6.90;;;15.40;99.90;;;;;;6137173;23;20396;-89
2021/09/20 03:03:51;;;;;;;8.40;7.37;;;15.40;99.90;;;;;;6145724;23;20434;-89
2021/09/20 03:06:19;;;;;;;10.10;8.30;;;15.30;99.90;;;;;;6131923;23;20435;-91
2021/09/20 03:08:46;;;;;;;8.10;7.40;;;15.20;99.90;;;;;;6127196;23;20418;-90
2021/09/20 03:11:12;;;;;;;8.57;7.87;;;15.10;99.90;;;;;;6146275;23;20407;-90
2021/09/20 03:13:39;;;;;;;8.80;8.00;;;15.00;99.90;;;;;;6140562;23;20411;-87
2021/09/20 03:16:06;;;;;;;8.10;7.27;;;15.00;99.90;;;;;;6127095;23;20950;-88
2021/09/20 03:18:33;;;;;;;11.90;8.13;;;15.00;99.90;;;;;;6128450;23;20407;-87
2021/09/20 03:20:59;;;;;;;9.00;8.20;;;15.10;99.90;;;;;;6128549;23;20411;-87
2021/09/20 03:23:28;;;;;;;8.40;7.60;;;15.00;99.90;;;;;;6129049;23;20403;-87
2021/09/20 03:25:55;;;;;;;8.80;7.90;;;15.00;99.90;;;;;;6145125;23;20498;-87
2021/09/20 03:28:22;;;;;;;8.53;7.73;;;15.00;99.90;;;;;;6147964;23;20414;-87
2021/09/20 03:30:49;;;;;;;9.27;8.23;;;15.00;99.90;;;;;;6141723;23;20410;-87
2021/09/20 03:33:15;;;;;;;9.43;8.53;;;14.90;99.90;;;;;;6131958;23;20407;-87
2021/09/20 03:35:42;;;;;;;8.37;7.57;;;14.90;99.90;;;;;;6135323;23;20428;-87
2021/09/20 03:38:09;;;;;;;9.87;9.00;;;15.00;99.90;;;;;;6129124;23;20406;-88
2021/09/20 03:40:37;;;;;;;8.60;7.80;;;14.90;99.90;;;;;;6131415;23;20408;-88
2021/09/20 03:43:04;;;;;;;8.80;8.00;;;14.90;99.90;;;;;;6141906;23;20407;-86
2021/09/20 03:45:31;;;;;;;9.80;9.00;;;14.90;99.90;;;;;;6155392;23;20488;-86
2021/09/20 03:47:58;;;;;;;9.00;8.20;;;14.90;99.90;;;;;;6155248;23;20479;-87
2021/09/20 03:50:25;;;;;;;9.90;8.90;;;14.90;99.90;;;;;;6154694;23;20412;-87
2021/09/20 03:52:52;;;;;;;9.73;8.83;;;14.90;99.90;;;;;;6154856;23;20455;-88
2021/09/20 03:55:19;;;;;;;9.10;7.50;;;15.00;99.90;;;;;;6154465;23;20440;-88
2021/09/20 03:57:47;;;;;;;7.87;7.07;;;15.00;99.90;;;;;;6154967;23;20411;-88
2021/09/20 04:00:15;;;;;;;9.20;8.30;;;15.00;99.90;;;;;;6155051;23;20391;-88
2021/09/20 04:02:42;;;;;;;9.67;8.30;;;15.10;99.90;;;;;;6154131;23;20466;-86
2021/09/20 04:05:11;;;;;;;8.77;7.97;;;15.00;99.90;;;;;;6150580;23;20466;-88
2021/09/20 04:07:39;;;;;;;10.10;8.60;;;15.00;99.90;;;;;;6150246;23;20475;-88
2021/09/20 04:10:06;;;;;;;9.43;8.57;;;15.10;99.90;;;;;;6129444;23;20408;-87
2021/09/20 04:12:33;;;;;;;9.07;8.23;;;15.10;99.90;;;;;;6131994;23;20468;-88
2021/09/20 04:15:01;;;;;;;8.90;8.10;;;15.20;99.90;;;;;;6132968;23;20500;-88
2021/09/20 04:17:28;;;;;;;8.63;7.57;;;15.20;99.90;;;;;;6134466;23;20404;-88
2021/09/20 04:19:55;;;;;;;9.10;8.20;;;15.30;99.90;;;;;;6154437;23;20409;-87
2021/09/20 04:22:21;;;;;;;9.83;8.87;;;15.30;99.90;;;;;;6150581;23;20467;-88
2021/09/20 04:24:49;;;;;;;8.47;7.67;;;15.20;99.90;;;;;;6147878;23;20522;-88
2021/09/20 04:27:15;;;;;;;8.43;7.53;;;15.30;99.90;;;;;;6136429;23;20448;-88
2021/09/20 04:29:42;;;;;;;9.10;8.30;;;15.30;99.90;;;;;;6136563;23;20400;-89
2021/09/20 04:32:10;;;;;;;8.50;7.60;;;15.30;99.90;;;;;;6137480;23;20402;-88
2021/09/20 04:34:37;;;;;;;9.10;7.97;;;15.30;99.90;;;;;;6138266;23;20430;-87
2021/09/20 04:37:04;;;;;;;8.67;7.87;;;15.30;99.90;;;;;;6141069;23;20479;-89
2021/09/20 04:39:31;;;;;;;7.70;6.93;;;15.20;99.90;;;;;;6136277;23;20477;-88
2021/09/20 04:41:58;;;;;;;8.87;7.97;;;15.30;99.90;;;;;;6138620;23;20494;-88
2021/09/20 04:44:25;;;;;;;11.93;9.20;;;15.20;99.90;;;;;;6134967;23;20427;-88
2021/09/20 04:46:51;;;;;;;8.67;7.83;;;15.30;99.90;;;;;;6131649;23;20446;-88
2021/09/20 04:49:20;;;;;;;8.67;7.90;;;15.30;99.90;;;;;;6128790;23;20442;-88
2021/09/20 04:51:46;;;;;;;9.03;8.23;;;15.30;99.90;;;;;;6127867;23;20499;-87
2021/09/20 04:54:13;;;;;;;7.93;7.23;;;15.30;99.90;;;;;;6129788;23;20499;-88
2021/09/20 04:56:40;;;;;;;8.77;7.97;;;15.30;99.90;;;;;;6123972;23;20415;-88
2021/09/20 04:59:07;;;;;;;7.57;6.87;;;15.30;99.90;;;;;;6128545;23;20400;-88
2021/09/20 05:01:34;;;;;;;8.40;7.60;;;15.30;99.90;;;;;;6132277;23;20510;-88
2021/09/20 05:04:01;;;;;;;8.30;7.50;;;15.20;99.90;;;;;;6128168;23;20428;-87
2021/09/20 05:06:29;;;;;;;8.63;7.70;;;15.30;99.90;;;;;;6127081;23;20421;-86
2021/09/20 05:08:56;;;;;;;8.83;7.97;;;15.30;99.90;;;;;;6131021;23;20449;-89
2021/09/20 05:11:23;;;;;;;9.83;8.83;;;15.30;99.90;;;;;;6135430;23;20408;-86
2021/09/20 05:13:50;;;;;;;7.80;7.20;;;15.30;99.90;;;;;;6131265;23;20435;-87
2021/09/20 05:16:17;;;;;;;8.40;7.60;;;15.30;99.90;;;;;;6133601;23;20402;-88
2021/09/20 05:18:44;;;;;;;9.83;8.87;;;15.30;99.90;;;;;;6130381;23;20463;-88
2021/09/20 05:21:11;;;;;;;8.50;7.80;;;15.40;99.90;;;;;;6132542;23;20419;-87
2021/09/20 05:23:39;;;;;;;9.43;8.40;;;15.30;99.90;;;;;;6133443;23;20751;-88
2021/09/20 05:26:06;;;;;;;9.30;8.40;;;15.40;99.90;;;;;;6136221;23;20422;-88
2021/09/20 05:28:33;;;;;;;11.60;10.50;;;15.40;99.90;;;;;;6129963;23;20442;-89
2021/09/20 05:30:59;;;;;;;10.23;9.27;;;15.40;99.90;;;;;;6130620;23;20415;-89
2021/09/20 05:33:26;;;;;;;9.73;8.87;;;15.40;99.90;;;;;;6134053;23;20423;-87
2021/09/20 05:35:53;;;;;;;16.13;9.80;;;15.40;99.90;;;;;;6143781;23;20408;-89
2021/09/20 05:38:20;;;;;;;9.97;8.93;;;15.40;99.90;;;;;;6146559;23;20495;-89
2021/09/20 05:40:48;;;;;;;9.80;8.80;;;15.50;99.90;;;;;;6131655;23;20506;-89
2021/09/20 05:43:15;;;;;;;8.80;8.00;;;15.50;99.90;;;;;;6129056;23;20435;-90
2021/09/20 05:45:42;;;;;;;9.40;8.60;;;15.60;99.90;;;;;;6129286;23;20432;-90
2021/09/20 05:48:08;;;;;;;9.57;8.67;;;15.60;99.90;;;;;;6127912;23;20446;-89
2021/09/20 05:50:35;;;;;;;9.80;8.60;;;15.60;99.90;;;;;;6126769;23;20408;-88
2021/09/20 05:53:03;;;;;;;9.27;8.37;;;15.60;99.90;;;;;;6125947;23;20392;-90
2021/09/20 05:55:30;;;;;;;11.27;8.40;;;15.70;99.90;;;;;;6126071;23;20439;-89
2021/09/20 05:57:58;;;;;;;11.10;8.17;;;15.60;99.90;;;;;;6124406;23;20408;-88
2021/09/20 06:00:26;;;;;;;10.30;8.47;;;15.70;99.90;;;;;;6126296;23;20407;-88
2021/09/20 06:02:52;;;;;;;10.57;9.53;;;15.60;99.90;;;;;;6126554;23;20407;-89
2021/09/20 06:05:19;;;;;;;13.33;8.63;;;15.70;99.90;;;;;;6126815;23;20518;-89
2021/09/20 06:07:46;;;;;;;10.30;9.30;;;15.60;99.90;;;;;;6139602;23;20438;-89
2021/09/20 06:10:17;;;;;;;9.50;8.70;;;15.70;99.90;;;;;;6149552;23;20531;-89
2021/09/20 06:15:27;;;;;;;9.97;9.00;;;15.70;99.90;;;;;;6144300;23;20444;-89
2021/09/20 06:17:58;;;;;;;9.80;8.90;;;15.70;99.90;;;;;;6137448;23;20464;-89
2021/09/20 06:20:25;;;;;;;9.57;8.63;;;15.80;99.90;;;;;;6140768;23;20419;-89
2021/09/20 06:22:55;;;;;;;9.17;8.27;;;15.80;99.90;;;;;;6151761;23;20384;-89
2021/09/20 06:25:23;;;;;;;10.53;9.53;;;15.80;99.90;;;;;;6135213;23;20514;-89
2021/09/20 06:27:50;;;;;;;9.67;8.77;;;15.80;99.90;;;;;;6126334;23;20941;-89
2021/09/20 06:30:17;;;;;;;9.90;8.90;;;15.90;99.90;;;;;;6128767;23;20404;-89
2021/09/20 06:32:46;;;;;;;9.00;7.60;;;15.90;99.90;;;;;;6127051;23;20415;-89
2021/09/20 06:35:13;;;;;;;9.90;8.93;;;16.00;99.90;;;;;;6129238;23;20420;-89
2021/09/20 06:37:43;;;;;;;11.03;9.93;;;16.00;99.90;;;;;;6131236;23;20399;-89
2021/09/20 06:40:13;;;;;;;8.97;8.13;;;16.00;99.90;;;;;;6127330;23;20407;-90
2021/09/20 06:42:40;;;;;;;12.20;9.37;;;16.00;99.90;;;;;;6127236;23;20384;-89
2021/09/20 06:45:08;;;;;;;11.07;9.87;;;16.10;99.90;;;;;;6126954;23;20451;-89
2021/09/20 06:47:36;;;;;;;11.17;9.40;;;16.10;99.90;;;;;;6126862;23;20518;-89
2021/09/20 06:50:05;;;;;;;10.70;9.60;;;16.10;99.90;;;;;;6126477;23;20470;-89
2021/09/20 06:52:32;;;;;;;10.23;9.33;;;16.10;99.90;;;;;;6132716;23;20407;-88
2021/09/20 06:54:58;;;;;;;12.60;10.57;;;16.20;99.90;;;;;;6154731;23;20499;-89
2021/09/20 06:57:25;;;;;;;8.77;8.00;;;16.30;99.90;;;;;;6133033;23;20419;-89
2021/09/20 06:59:52;;;;;;;10.33;9.37;;;16.30;99.90;;;;;;6129782;23;20840;-89
2021/09/20 07:02:22;;;;;;;9.70;8.80;;;16.30;99.90;;;;;;6129062;23;21089;-90
2021/09/20 07:04:49;;;;;;;10.70;9.60;;;16.40;99.90;;;;;;6135505;23;20494;-83
2021/09/20 07:07:17;;;;;;;13.33;8.90;;;16.40;99.90;;;;;;6137351;23;20415;-85
2021/09/20 07:09:44;;;;;;;10.20;8.77;;;16.40;99.90;;;;;;6149006;23;20409;-81
2021/09/20 07:12:11;;;;;;;11.30;10.20;;;16.40;99.90;;;;;;6149661;23;20408;-81
2021/09/20 07:14:38;;;;;;;10.93;9.50;;;16.40;99.90;;;;;;6146443;23;20440;-82
2021/09/20 07:17:11;;;;;;;10.37;9.37;;;16.40;99.90;;;;;;6149889;23;20409;-88
2021/09/20 07:19:37;;;;;;;9.40;8.43;;;16.50;99.90;;;;;;6146967;23;20724;-88
2021/09/20 07:22:04;;;;;;;23.87;20.30;;;16.50;99.90;;;;;;6147859;23;20475;-88
2021/09/20 07:24:32;;;;;;;10.43;9.33;;;16.70;99.90;;;;;;6143323;23;20507;-88
2021/09/20 07:27:00;;;;;;;9.33;8.53;;;16.70;99.90;;;;;;6137658;23;20475;-88
2021/09/20 07:29:28;;;;;;;10.00;9.00;;;16.70;99.90;;;;;;6143782;23;20439;-88
2021/09/20 07:31:54;;;;;;;11.80;10.60;;;16.70;99.90;;;;;;6140059;23;20408;-88
2021/09/20 07:34:21;;;;;;;10.57;8.80;;;16.70;99.90;;;;;;6137954;23;20505;-86
2021/09/20 07:36:48;;;;;;;10.17;9.17;;;16.80;99.90;;;;;;6138622;23;20495;-89
2021/09/20 07:39:15;;;;;;;10.27;9.27;;;16.80;99.90;;;;;;6137316;23;20472;-89
2021/09/20 07:41:43;;;;;;;11.70;10.50;;;16.90;99.90;;;;;;6134463;23;20415;-88
2021/09/20 07:44:10;;;;;;;10.43;9.37;;;17.00;99.90;;;;;;6139563;23;20499;-89
2021/09/20 07:46:37;;;;;;;11.30;10.10;;;17.10;99.90;;;;;;6138678;23;20410;-89
2021/09/20 07:49:04;;;;;;;10.97;9.97;;;17.20;99.90;;;;;;6135861;23;20438;-88
2021/09/20 07:51:31;;;;;;;12.70;11.30;;;17.30;99.90;;;;;;6129921;23;20406;-89
2021/09/20 07:53:58;;;;;;;10.60;9.60;;;17.40;99.90;;;;;;6130154;23;20432;-88
2021/09/20 07:56:24;;;;;;;13.50;9.70;;;17.50;99.90;;;;;;6136674;23;20422;-88
2021/09/20 07:58:52;;;;;;;15.20;9.30;;;17.60;99.90;;;;;;6142003;23;20487;-89
2021/09/20 08:01:19;;;;;;;22.13;12.57;;;17.70;99.90;;;;;;6129542;23;20498;-89
2021/09/20 08:03:46;;;;;;;15.33;9.53;;;17.60;99.90;;;;;;6128323;23;20408;-88
2021/09/20 08:06:17;;;;;;;16.00;11.73;;;17.50;99.90;;;;;;6128633;23;20398;-89
2021/09/20 08:08:43;;;;;;;14.23;11.20;;;17.40;99.90;;;;;;6128134;23;20427;-88
2021/09/20 08:11:10;;;;;;;11.07;9.17;;;17.40;99.90;;;;;;6128936;23;20426;-88
2021/09/20 08:13:37;;;;;;;12.77;11.40;;;17.50;99.90;;;;;;6128350;23;20402;-89
2021/09/20 08:16:05;;;;;;;14.27;11.30;;;17.50;99.90;;;;;;6099353;23;20489;-88
2021/09/20 08:18:32;;;;;;;13.20;11.90;;;17.50;99.90;;;;;;6113827;23;20389;-87
2021/09/20 08:20:59;;;;;;;12.60;11.23;;;17.40;99.90;;;;;;6125088;23;20401;-88
2021/09/20 08:23:27;;;;;;;13.03;11.63;;;17.50;99.90;;;;;;6125436;23;20410;-87
2021/09/20 08:25:55;;;;;;;11.43;10.00;;;17.70;99.90;;;;;;6116016;23;20436;-89
2021/09/20 08:28:22;;;;;;;11.87;10.67;;;18.00;99.90;;;;;;6099289;23;20463;-89
2021/09/20 08:30:49;;;;;;;12.73;11.50;;;18.10;99.90;;;;;;6099086;23;20462;-88
2021/09/20 08:33:18;;;;;;;13.27;12.00;;;18.10;99.90;;;;;;6105293;23;20499;-89
2021/09/20 08:35:45;;;;;;;13.00;11.70;;;18.10;99.90;;;;;;6100931;23;20431;-88
2021/09/20 08:38:11;;;;;;;12.80;11.50;;;17.90;99.90;;;;;;6099222;23;20465;-89
2021/09/20 08:40:38;;;;;;;12.40;11.30;;;17.90;99.90;;;;;;6114619;23;20401;-88
2021/09/20 08:43:05;;;;;;;14.17;12.67;;;17.80;99.90;;;;;;6114417;23;20405;-89
2021/09/20 08:45:32;;;;;;;13.00;11.03;;;17.70;99.90;;;;;;6098902;23;20456;-88
2021/09/20 08:48:00;;;;;;;15.30;13.70;;;17.60;99.90;;;;;;6098910;23;20517;-88
2021/09/20 08:50:32;;;;;;;16.20;14.37;;;17.80;99.90;;;;;;6098473;23;20735;-89
2021/09/20 08:52:59;;;;;;;15.10;13.53;;;18.00;99.90;;;;;;6099133;23;20414;-89
2021/09/20 08:55:26;;;;;;;15.00;13.17;;;18.00;99.90;;;;;;6101534;23;20428;-88
2021/09/20 08:57:53;;;;;;;14.57;13.07;;;18.30;99.90;;;;;;6104334;23;20751;-89
2021/09/20 09:00:20;;;;;;;14.07;12.67;;;18.70;99.90;;;;;;6098636;23;20402;-88
2021/09/20 09:02:47;;;;;;;14.53;13.03;;;19.10;99.90;;;;;;6098408;23;20418;-89
2021/09/20 09:05:16;;;;;;;13.90;12.50;;;19.40;99.90;;;;;;6098311;23;20479;-89
2021/09/20 09:07:45;;;;;;;13.73;12.33;;;19.70;99.90;;;;;;6098291;23;20418;-89
2021/09/20 09:10:13;;;;;;;13.83;12.37;;;19.30;99.90;;;;;;6097634;23;20411;-89
2021/09/20 09:12:40;;;;;;;16.27;13.03;;;19.20;99.90;;;;;;6097985;23;20414;-90
2021/09/20 09:15:09;;;;;;;14.00;12.60;;;19.50;99.90;;;;;;6115760;23;20464;-91
2021/09/20 09:17:38;;;;;;;14.17;12.80;;;19.60;99.90;;;;;;6128154;23;20416;-93
2021/09/20 09:20:08;;;;;;;15.90;14.33;;;19.90;99.90;;;;;;6128035;23;20414;-91
2021/09/20 09:22:44;;;;;;;14.90;13.10;;;20.00;99.90;;;;;;6128210;23;20399;-91
2021/09/20 09:25:16;;;;;;;15.80;14.33;;;20.10;99.90;;;;;;6129245;23;20466;-92
2021/09/20 09:27:46;;;;;;;13.57;12.27;;;20.10;99.90;;;;;;6128159;23;20429;-92
2021/09/20 09:30:17;;;;;;;14.10;12.80;;;20.10;99.90;;;;;;6128316;23;20451;-92
2021/09/20 09:32:51;;;;;;;15.27;13.80;;;19.60;99.90;;;;;;6128853;23;20421;-92
2021/09/20 09:35:22;;;;;;;13.60;12.40;;;19.40;99.90;;;;;;6130936;23;20446;-92
2021/09/20 09:37:49;;;;;;;14.20;12.77;;;19.40;99.90;;;;;;6127440;23;20412;-91
2021/09/20 09:40:21;;;;;;;16.23;14.57;;;19.50;99.90;;;;;;6127445;23;20508;-92
2021/09/20 09:42:51;;;;;;;15.27;13.77;;;19.30;99.90;;;;;;6128953;23;20406;-91
2021/09/20 09:45:26;;;;;;;15.70;13.90;;;19.20;99.90;;;;;;6130134;23;20436;-91
2021/09/20 09:48:09;;;;;;;14.77;13.40;;;19.20;99.90;;;;;;6147705;23;20439;-91
2021/09/20 09:50:40;;;;;;;15.20;13.67;;;19.20;99.90;;;;;;6136763;23;20420;-91
2021/09/20 09:53:08;;;;;;;15.10;13.60;;;19.20;99.90;;;;;;6149072;23;20405;-91
2021/09/20 09:55:39;;;;;;;14.77;13.43;;;19.20;99.90;;;;;;6147812;23;21111;-91
2021/09/20 09:58:19;;;;;;;14.83;13.33;;;19.10;99.90;;;;;;6137660;23;20412;-90
2021/09/20 10:00:46;;;;;;;15.87;14.27;;;18.90;99.90;;;;;;6146009;23;20395;-92
2021/09/20 10:03:14;;;;;;;16.17;14.67;;;18.90;99.90;;;;;;6145674;23;20424;-91
2021/09/20 10:05:55;;;;;;;14.63;13.23;;;19.00;99.90;;;;;;6134881;23;20491;-91
2021/09/20 10:08:23;;;;;;;16.03;14.47;;;19.10;99.90;;;;;;6129317;23;20462;-91
2021/09/20 10:10:51;;;;;;;13.10;11.90;;;19.20;99.90;;;;;;6130198;23;20468;-91
2021/09/20 10:13:19;;;;;;;13.93;12.60;;;19.30;99.90;;;;;;6133720;23;20398;-91
2021/09/20 10:15:47;;;;;;;15.70;14.17;;;19.40;99.90;;;;;;6128529;23;20482;-91
2021/09/20 10:18:15;;;;;;;15.73;14.13;;;19.50;99.90;;;;;;6127987;23;20938;-92
2021/09/20 10:20:42;;;;;;;16.00;13.97;;;19.40;99.90;;;;;;6127933;23;20480;-92
2021/09/20 10:23:10;;;;;;;13.67;12.47;;;19.50;99.90;;;;;;6127431;23;20420;-91
2021/09/20 10:25:37;;;;;;;15.07;13.57;;;19.40;99.90;;;;;;6128175;23;20432;-91
2021/09/20 10:28:08;;;;;;;15.20;13.60;;;19.50;99.90;;;;;;6129924;23;20784;-92
2021/09/20 10:30:36;;;;;;;16.47;14.97;;;19.50;99.90;;;;;;6128737;23;20892;-92
2021/09/20 10:33:07;;;;;;;16.23;14.63;;;19.50;99.90;;;;;;6128495;23;20423;-92
2021/09/20 10:35:36;;;;;;;14.93;13.43;;;19.60;99.90;;;;;;6129538;23;20437;-92
2021/09/20 10:38:24;;;;;;;15.20;13.70;;;19.60;99.90;;;;;;6132125;23;20796;-92
2021/09/20 10:41:10;;;;;;;14.17;12.87;;;19.70;99.90;;;;;;6129821;23;20752;-92
2021/09/20 10:43:41;;;;;;;17.50;15.43;;;19.70;99.90;;;;;;6130913;23;20409;-92
2021/09/20 10:46:20;;;;;;;15.30;13.70;;;19.60;99.90;;;;;;6150849;23;20404;-92
2021/09/20 10:48:50;;;;;;;16.17;14.43;;;19.60;99.90;;;;;;6144423;23;20445;-92
2021/09/20 10:51:31;;;;;;;15.57;14.27;;;19.70;99.90;;;;;;6145047;23;20478;-92
2021/09/20 10:54:20;;;;;;;15.53;13.97;;;19.70;99.90;;;;;;6129432;23;20476;-93
2021/09/20 10:56:51;;;;;;;16.40;13.33;;;19.60;99.90;;;;;;6130815;23;20497;-91
2021/09/20 10:59:31;;;;;;;15.23;13.63;;;19.80;99.90;;;;;;6135469;23;20415;-92
2021/09/20 11:02:32;;;;;;;16.17;14.40;;;19.90;99.90;;;;;;6135996;23;20755;-92
2021/09/20 11:05:05;;;;;;;16.50;14.90;;;20.00;99.90;;;;;;6141029;23;21000;-91
2021/09/20 11:07:44;;;;;;;15.07;13.57;;;20.20;99.90;;;;;;6153420;23;20379;-92
2021/09/20 11:10:11;;;;;;;14.20;12.70;;;20.30;99.90;;;;;;6140869;23;20483;-92
2021/09/20 11:12:56;;;;;;;14.87;13.50;;;20.30;99.90;;;;;;6137771;23;20440;-90
2021/09/20 11:15:25;;;;;;;16.40;14.70;;;20.00;99.90;;;;;;6129678;23;20425;-91
2021/09/20 11:17:53;;;;;;;14.87;13.47;;;20.20;99.90;;;;;;6128022;23;20476;-91
2021/09/20 11:20:35;;;;;;;17.57;15.67;;;20.20;99.90;;;;;;6127564;23;20763;-91
2021/09/20 11:23:23;;;;;;;15.97;14.43;;;20.30;99.90;;;;;;6128166;23;20492;-92
2021/09/20 11:26:15;;;;;;;14.63;13.30;;;20.30;99.90;;;;;;6127974;23;20436;-92
2021/09/20 11:28:46;;;;;;;16.63;14.97;;;20.40;99.90;;;;;;6128218;23;20437;-92
2021/09/20 11:31:14;;;;;;;14.30;13.07;;;20.10;99.90;;;;;;6127549;23;20375;-91
2021/09/20 11:33:43;;;;;;;14.30;11.97;;;20.50;99.90;;;;;;6128369;23;20424;-91
2021/09/20 11:36:26;;;;;;;14.73;13.33;;;21.40;99.90;;;;;;6127755;23;20394;-92
2021/09/20 11:39:18;;;;;;;14.27;12.87;;;22.70;97.40;;;;;;6131844;23;20448;-91
2021/09/20 11:41:49;;;;;;;13.03;11.90;;;23.00;95.60;;;;;;6132968;23;20412;-92
2021/09/20 11:44:16;;;;;;;12.80;11.70;;;23.10;95.50;;;;;;6132952;23;20439;-92
2021/09/20 11:46:46;;;;;;;14.37;12.97;;;22.90;95.10;;;;;;6131080;23;20396;-92
2021/09/20 11:49:16;;;;;;;13.80;12.20;;;22.60;95.00;;;;;;6133167;23;20438;-92
2021/09/20 11:54:30;;;;;;;14.17;12.83;;;22.10;95.90;;;;;;6148043;23;20416;-92
2021/09/20 11:57:13;;;;;;;13.83;12.73;;;22.20;96.10;;;;;;6154116;23;20401;-92
2021/09/20 12:00:02;;;;;;;13.00;11.80;;;22.40;95.60;;;;;;6152204;23;20428;-90
2021/09/20 12:05:46;;;;;;;13.63;12.47;;;23.70;93.80;;;;;;6134359;23;20527;-91
2021/09/20 12:08:39;;;;;;;12.60;11.53;;;24.50;92.70;;;;;;6135616;23;20415;-92
2021/09/20 12:11:12;;;;;;;11.80;10.90;;;25.00;91.00;;;;;;6139904;23;20452;-92
2021/09/20 12:13:41;;;;;;;11.33;10.43;;;25.40;90.10;;;;;;6150149;23;20396;-91
2021/09/20 12:19:00;;;;;;;12.67;11.37;;;26.10;86.20;;;;;;6134062;23;20404;-90
2021/09/20 12:21:35;;;;;;;11.50;10.60;;;25.80;84.60;;;;;;6133965;23;20798;-90
2021/09/20 12:24:22;;;;;;;11.83;10.83;;;25.50;85.30;;;;;;6138122;23;20490;-90
2021/09/20 12:30:42;;;;;;;;;;;;;;;;;;;;;
2021/09/20 12:33:34;;;;;;;11.97;11.00;;;24.90;86.90;;;;;;6139122;23;20399;-92
2021/09/20 12:36:03;;;;;;;11.57;10.37;;;24.50;87.10;;;;;;6149882;23;20396;-92
2021/09/20 12:38:34;;;;;;;11.40;10.50;;;23.80;87.60;;;;;;6143775;23;20403;-90
2021/09/20 12:41:15;;;;;;;12.17;11.17;;;23.90;88.80;;;;;;6150477;23;20398;-91
2021/09/20 12:43:44;;;;;;;12.10;10.90;;;23.80;88.60;;;;;;6140903;23;20395;-92
2021/09/20 12:46:17;;;;;;;11.70;10.70;;;23.40;90.00;;;;;;6132783;23;20941;-93
2021/09/20 12:48:46;;;;;;;11.20;10.07;;;24.00;89.50;;;;;;6132124;23;20414;-91
2021/09/20 12:51:16;;;;;;;13.90;12.27;;;24.90;87.30;;;;;;6134887;23;20429;-92
2021/09/20 12:53:45;;;;;;;11.13;10.23;;;25.40;84.70;;;;;;6132346;23;20416;-92
2021/09/20 12:56:15;;;;;;;12.03;10.83;;;25.50;82.20;;;;;;6133168;23;20402;-92
2021/09/20 12:58:48;;;;;;;10.70;9.80;;;25.60;81.90;;;;;;6140315;23;20412;-92
2021/09/20 13:01:23;;;;;;;11.20;10.30;;;25.20;80.90;;;;;;6154074;23;20392;-93
2021/09/20 13:04:00;;;;;;;12.57;11.47;;;24.80;83.70;;;;;;6138448;23;20407;-93
2021/09/20 13:06:28;;;;;;;11.77;10.73;;;24.50;84.20;;;;;;6134814;23;20387;-93
2021/09/20 13:09:00;;;;;;;9.47;8.63;;;24.30;85.20;;;;;;6133155;23;20415;-92
2021/09/20 13:11:28;;;;;;;10.47;9.67;;;24.40;84.20;;;;;;6137604;23;20446;-93